createdAt,value
2017-02-21T00:06:15.192Z,0
2017-02-21T00:16:15.267Z,0
2017-02-21T00:26:15.161Z,0
2017-02-21T00:36:15.132Z,0
2017-02-21T00:46:15.214Z,0
2017-02-21T00:56:15.158Z,0
2017-02-21T01:06:15.246Z,0
2017-02-21T01:16:15.161Z,0
2017-02-21T01:26:15.230Z,0
2017-02-21T01:36:15.230Z,0
2017-02-21T01:46:15.253Z,0
2017-02-21T01:56:15.246Z,0
2017-02-21T02:06:15.280Z,0
2017-02-21T02:16:15.250Z,0
2017-02-21T02:26:15.306Z,0
2017-02-21T02:36:15.311Z,0
2017-02-21T02:46:15.357Z,0
2017-02-21T02:56:15.299Z,0
2017-02-21T03:06:15.353Z,0
2017-02-21T03:16:15.315Z,0
2017-02-21T03:26:15.259Z,0
2017-02-21T03:36:15.304Z,0
2017-02-21T03:46:15.312Z,0
2017-02-21T03:56:15.352Z,0
2017-02-21T04:06:15.324Z,0
2017-02-21T04:16:15.399Z,0
2017-02-21T04:26:15.359Z,0
2017-02-21T04:36:15.406Z,0
2017-02-21T04:46:15.347Z,0
2017-02-21T04:56:15.441Z,0
2017-02-21T05:06:15.366Z,0
2017-02-21T05:16:15.443Z,0
2017-02-21T05:26:15.402Z,0
2017-02-21T05:36:15.470Z,0
2017-02-21T05:46:15.453Z,0
2017-02-21T05:56:15.408Z,0
2017-02-21T06:06:15.469Z,0
2017-02-21T06:16:15.437Z,0
2017-02-21T06:26:15.481Z,0
2017-02-21T06:36:15.450Z,5
2017-02-21T06:46:15.586Z,10
2017-02-21T06:56:15.452Z,20
2017-02-21T07:06:15.565Z,35
2017-02-21T07:16:15.843Z,45
2017-02-21T07:26:15.507Z,50
2017-02-21T07:36:15.521Z,90
2017-02-21T07:46:15.591Z,70
2017-02-21T07:56:15.588Z,110
2017-02-21T08:06:15.592Z,85
2017-02-21T08:16:16.668Z,155
2017-02-21T08:26:15.485Z,135
2017-02-21T08:36:15.574Z,115
2017-02-21T08:46:15.535Z,185
2017-02-21T08:56:15.618Z,155
2017-02-21T09:06:15.677Z,140
2017-02-21T09:16:15.642Z,170
2017-02-21T09:26:15.622Z,170
2017-02-21T09:36:15.738Z,160
2017-02-21T09:46:15.616Z,200
2017-02-21T09:56:15.701Z,195
2017-02-21T10:06:15.660Z,160
2017-02-21T10:16:15.731Z,210
2017-02-21T10:26:15.628Z,220
2017-02-21T10:36:15.701Z,180
2017-02-21T10:46:15.734Z,170
2017-02-21T10:56:15.723Z,235
2017-02-21T11:06:15.759Z,255
2017-02-21T11:16:15.720Z,250
2017-02-21T11:26:16.303Z,155
2017-02-21T11:36:15.724Z,165
2017-02-21T11:46:15.701Z,180
2017-02-21T11:56:15.723Z,205
2017-02-21T12:06:15.949Z,240
2017-02-21T12:16:15.763Z,225
2017-02-21T12:26:15.747Z,210
2017-02-21T12:36:15.728Z,180
2017-02-21T12:46:15.739Z,205
2017-02-21T12:56:15.755Z,190
2017-02-21T13:06:15.790Z,220
2017-02-21T13:16:16.073Z,240
2017-02-21T13:26:16.098Z,175
2017-02-21T13:36:15.819Z,215
2017-02-21T13:46:15.790Z,190
2017-02-21T13:56:16.175Z,140
2017-02-21T14:06:15.842Z,180
2017-02-21T14:16:15.849Z,165
2017-02-21T14:26:15.840Z,155
2017-02-21T14:36:15.886Z,120
2017-02-21T14:46:15.862Z,130
2017-02-21T14:56:15.915Z,115
2017-02-21T15:06:15.883Z,120
2017-02-21T15:16:15.866Z,115
2017-02-21T15:26:15.975Z,95
2017-02-21T15:36:15.971Z,90
2017-02-21T15:46:16.005Z,75
2017-02-21T15:56:15.984Z,70
2017-02-21T16:06:15.991Z,55
2017-02-21T16:16:16.420Z,45
2017-02-21T16:26:15.870Z,35
2017-02-21T16:36:15.876Z,20
2017-02-21T16:46:15.861Z,10
2017-02-21T16:56:15.873Z,5
2017-02-21T17:06:15.845Z,0
2017-02-21T17:16:15.900Z,0
2017-02-21T17:26:15.875Z,0
2017-02-21T17:36:15.895Z,0
2017-02-21T17:46:15.894Z,0
2017-02-21T17:56:15.877Z,0
2017-02-21T18:06:15.911Z,0
2017-02-21T18:16:15.882Z,0
2017-02-21T18:26:15.954Z,0
2017-02-21T18:36:15.863Z,0
2017-02-21T18:46:15.850Z,0
2017-02-21T18:56:15.826Z,0
2017-02-21T19:06:15.853Z,0
2017-02-21T19:16:15.985Z,0
2017-02-21T19:26:15.801Z,0
2017-02-21T19:36:15.814Z,0
2017-02-21T19:46:26.976Z,0
2017-02-21T19:56:29.070Z,0
2017-02-21T20:06:22.305Z,0
2017-02-21T20:16:30.176Z,0
2017-02-21T20:26:29.861Z,0
2017-02-21T20:36:29.340Z,0
2017-02-21T20:46:24.674Z,0
2017-02-21T20:56:30.733Z,0
2017-02-21T21:06:16.329Z,0
2017-02-21T21:16:16.411Z,0
2017-02-21T21:26:15.961Z,0
2017-02-21T21:36:15.942Z,0
2017-02-21T21:46:15.890Z,0
2017-02-21T21:56:22.814Z,0
2017-02-21T22:06:16.094Z,0
2017-02-21T22:16:15.888Z,0
2017-02-21T22:26:15.887Z,0
2017-02-21T22:36:15.870Z,0
2017-02-21T22:46:23.884Z,0
2017-02-21T22:56:15.826Z,0
2017-02-21T23:06:15.886Z,0
2017-02-21T23:16:15.920Z,0
2017-02-21T23:26:15.821Z,0
2017-02-21T23:36:15.881Z,0
2017-02-21T23:46:15.928Z,0
2017-02-21T23:56:15.904Z,0
